ADDS METAR Data INFO
IDs: Format: Raw Decoded Include TAF

Data at: 0857 UTC 16 Jul 2018

METAR for:PAAK (Atka Arpt, AK, US)
Text:PAAK 160856Z AUTO 00000KT 10SM FEW010 OVC021 07/06 A3034 RMK AO2 SLP276 6//// T00720061 401110067 51008 PNO $
Temperature: 7.2°C ( 45°F)
Dewpoint: 6.1°C ( 43°F) [RH = 93%]
Pressure (altimeter):30.34 inches Hg (1027.5 mb) [Sea level pressure: 1027.6 mb]
Winds:calm
Visibility:10 or more sm (16+ km)
Ceiling:2100 feet AGL
Clouds: few clouds at 1000 feet AGL, overcast cloud deck at 2100 feet AGL
QC Flag:automated observation with no human augmentation; SOME DATA ABOVE MAY BE INACCURATE!!!"$" is an indication the sensor requires maintenance.
Text:PAAK 160756Z AUTO 19003KT 10SM OVC021 08/06 A3033 RMK AO2 SLP274 T00780061 PNO $
Temperature: 7.8°C ( 46°F)
Dewpoint: 6.1°C ( 43°F) [RH = 89%]
Pressure (altimeter):30.33 inches Hg (1027.2 mb) [Sea level pressure: 1027.4 mb]
Winds:from the S (190 degrees) at 3 MPH (3 knots; 1.5 m/s)
Visibility:10 or more sm (16+ km)
Ceiling:2100 feet AGL
Clouds: overcast cloud deck at 2100 feet AGL
QC Flag:automated observation with no human augmentation; SOME DATA ABOVE MAY BE INACCURATE!!!"$" is an indication the sensor requires maintenance.
Text:PAAK 160741Z AUTO 00000KT 10SM FEW009 OVC021 08/06 A3033 RMK AO2 PNO $
Temperature: 8.0°C ( 46°F)
Dewpoint: 6.0°C ( 43°F) [RH = 87%]
Pressure (altimeter):30.33 inches Hg (1027.2 mb)
Winds:calm
Visibility:10 or more sm (16+ km)
Ceiling:2100 feet AGL
Clouds: few clouds at 900 feet AGL, overcast cloud deck at 2100 feet AGL
QC Flag:automated observation with no human augmentation; SOME DATA ABOVE MAY BE INACCURATE!!!"$" is an indication the sensor requires maintenance.
Text:PAAK 160656Z AUTO 00000KT 9SM OVC021 08/06 A3033 RMK AO2 SLP271 T00830061 PNO $
Temperature: 8.3°C ( 47°F)
Dewpoint: 6.1°C ( 43°F) [RH = 86%]
Pressure (altimeter):30.33 inches Hg (1027.2 mb) [Sea level pressure: 1027.1 mb]
Winds:calm
Visibility: 9 sm ( 14 km)
Ceiling:2100 feet AGL
Clouds: overcast cloud deck at 2100 feet AGL
QC Flag:automated observation with no human augmentation; SOME DATA ABOVE MAY BE INACCURATE!!!"$" is an indication the sensor requires maintenance.
Text:PAAK 160556Z AUTO 25007KT 10SM BKN015 OVC020 08/06 A3032 RMK AO2 SLP268 6//// T00780056 10100 20078 51007 PNO $
Temperature: 7.8°C ( 46°F)
Dewpoint: 5.6°C ( 42°F) [RH = 86%]
Pressure (altimeter):30.32 inches Hg (1026.8 mb) [Sea level pressure: 1026.8 mb]
Winds:from the WSW (250 degrees) at 8 MPH (7 knots; 3.6 m/s)
Visibility:10 or more sm (16+ km)
Ceiling:1500 feet AGL
Clouds: broken clouds at 1500 feet AGL, overcast cloud deck at 2000 feet AGL
QC Flag:automated observation with no human augmentation; SOME DATA ABOVE MAY BE INACCURATE!!!"$" is an indication the sensor requires maintenance.
Text:PAAK 160514Z AUTO 30010KT 10SM BKN013 OVC022 08/06 A3032 RMK AO2 PNO $
Temperature: 8.0°C ( 46°F)
Dewpoint: 6.0°C ( 43°F) [RH = 87%]
Pressure (altimeter):30.32 inches Hg (1026.8 mb)
Winds:from the WNW (300 degrees) at 12 MPH (10 knots; 5.1 m/s)
Visibility:10 or more sm (16+ km)
Ceiling:1300 feet AGL
Clouds: broken clouds at 1300 feet AGL, overcast cloud deck at 2200 feet AGL
QC Flag:automated observation with no human augmentation; SOME DATA ABOVE MAY BE INACCURATE!!!"$" is an indication the sensor requires maintenance.
Text:PAAK 160456Z AUTO VRB04KT 10SM FEW013 OVC022 08/07 A3031 RMK AO2 SLP267 T00830067 PNO $
Temperature: 8.3°C ( 47°F)
Dewpoint: 6.7°C ( 44°F) [RH = 90%]
Pressure (altimeter):30.31 inches Hg (1026.5 mb) [Sea level pressure: 1026.7 mb]
Winds:variable direction winds at 5 MPH (4 knots; 2.1 m/s)
Visibility:10 or more sm (16+ km)
Ceiling:2200 feet AGL
Clouds: few clouds at 1300 feet AGL, overcast cloud deck at 2200 feet AGL
QC Flag:automated observation with no human augmentation; SOME DATA ABOVE MAY BE INACCURATE!!!"$" is an indication the sensor requires maintenance.
Text:PAAK 160356Z AUTO 27014KT 10SM OVC024 08/06 A3031 RMK AO2 SLP265 T00830061 PNO $
Temperature: 8.3°C ( 47°F)
Dewpoint: 6.1°C ( 43°F) [RH = 86%]
Pressure (altimeter):30.31 inches Hg (1026.5 mb) [Sea level pressure: 1026.5 mb]
Winds:from the W (270 degrees) at 16 MPH (14 knots; 7.2 m/s)
Visibility:10 or more sm (16+ km)
Ceiling:2400 feet AGL
Clouds: overcast cloud deck at 2400 feet AGL
QC Flag:automated observation with no human augmentation; SOME DATA ABOVE MAY BE INACCURATE!!!"$" is an indication the sensor requires maintenance.

TAF for:PAAK (Atka Arpt, AK, US)
Text:No data found